createdAt,value
2024-05-09T00:00:39.271Z,4.75
2024-05-09T00:03:42.861Z,4.32
2024-05-09T00:06:44.749Z,4.45
2024-05-09T00:09:48.176Z,4.03
2024-05-09T00:12:50.002Z,4.20
2024-05-09T00:15:51.928Z,4.50
2024-05-09T00:18:54.335Z,4.15
2024-05-09T00:21:56.166Z,4.57
2024-05-09T00:24:57.961Z,4.50
2024-05-09T00:27:59.857Z,4.47
2024-05-09T00:31:03.040Z,4.50
2024-05-09T00:34:05.101Z,4.82
2024-05-09T00:37:07.065Z,4.30
2024-05-09T00:40:18.223Z,4.80
2024-05-09T00:43:24.649Z,4.90
2024-05-09T00:46:26.586Z,6.05
2024-05-09T00:49:28.775Z,4.80
2024-05-09T00:52:30.910Z,4.32
2024-05-09T00:55:33.957Z,6.05
2024-05-09T00:58:36.086Z,4.95
2024-05-09T01:01:38.072Z,4.70
2024-05-09T01:04:40.213Z,4.50
2024-05-09T01:07:43.437Z,4.45
2024-05-09T01:10:47.879Z,5.13
2024-05-09T01:13:50.412Z,4.65
2024-05-09T01:16:52.363Z,4.43
2024-05-09T01:19:54.316Z,4.60
2024-05-09T01:22:57.628Z,4.32
2024-05-09T01:25:59.473Z,4.20
2024-05-09T01:29:01.414Z,4.50
2024-05-09T01:32:04.977Z,4.43
2024-05-09T01:35:07.132Z,4.35
2024-05-09T01:38:10.038Z,4.75
2024-05-09T01:41:12.029Z,4.68
2024-05-09T01:44:13.970Z,5.10
2024-05-09T01:47:15.921Z,4.70
2024-05-09T01:50:22.504Z,4.65
2024-05-09T01:53:30.866Z,4.50
2024-05-09T01:56:32.846Z,4.60
2024-05-09T01:59:34.832Z,4.57
2024-05-09T02:02:36.744Z,4.40
2024-05-09T02:05:38.692Z,4.88
2024-05-09T02:08:40.894Z,4.78
2024-05-09T02:11:44.690Z,4.90
2024-05-09T02:14:46.536Z,5.45
2024-05-09T02:17:48.578Z,4.80
2024-05-09T02:20:50.649Z,4.50
2024-05-09T02:23:52.521Z,5.28
2024-05-09T02:26:54.415Z,5.10
2024-05-09T02:29:56.327Z,4.88
2024-05-09T02:32:58.392Z,5.03
2024-05-09T02:36:00.298Z,5.13
2024-05-09T02:39:02.146Z,5.00
2024-05-09T02:42:04.139Z,4.85
2024-05-09T02:45:06.343Z,4.80
2024-05-09T02:48:13.214Z,4.22
2024-05-09T02:51:15.745Z,4.50
2024-05-09T02:54:17.743Z,4.68
2024-05-09T02:57:19.616Z,4.32
2024-05-09T03:00:26.737Z,4.40
2024-05-09T03:03:37.130Z,4.53
2024-05-09T03:06:42.679Z,5.05
2024-05-09T03:09:47.614Z,4.57
2024-05-09T03:12:49.675Z,6.00
2024-05-09T03:15:51.513Z,5.10
2024-05-09T03:18:55.258Z,5.13
2024-05-09T03:21:57.103Z,5.10
2024-05-09T03:24:59.071Z,4.80
2024-05-09T03:28:01.074Z,4.90
2024-05-09T03:31:03.011Z,4.80
2024-05-09T03:34:05.136Z,5.00
2024-05-09T03:37:07.050Z,5.07
2024-05-09T03:40:14.627Z,4.80
2024-05-09T03:43:22.071Z,4.88
2024-05-09T03:46:23.968Z,4.70
2024-05-09T03:49:26.067Z,4.47
2024-05-09T03:52:27.991Z,4.68
2024-05-09T03:55:29.916Z,4.88
2024-05-09T03:58:31.777Z,4.85
2024-05-09T04:01:33.674Z,4.60
2024-05-09T04:04:35.679Z,5.28
2024-05-09T04:07:38.136Z,4.95
2024-05-09T04:10:40.665Z,4.70
2024-05-09T04:13:43.258Z,4.47
2024-05-09T04:16:45.153Z,4.93
2024-05-09T04:19:47.098Z,5.10
2024-05-09T04:22:49.023Z,5.05
2024-05-09T04:25:50.935Z,4.35
2024-05-09T04:28:52.853Z,4.85
2024-05-09T04:31:55.881Z,4.85
2024-05-09T04:34:57.826Z,4.80
2024-05-09T04:38:00.611Z,4.70
2024-05-09T04:41:02.713Z,4.70
2024-05-09T04:44:04.810Z,4.45
2024-05-09T04:47:06.821Z,4.78
2024-05-09T04:50:11.709Z,5.80
2024-05-09T04:53:17.150Z,4.35
2024-05-09T04:56:19.402Z,4.65
2024-05-09T04:59:22.223Z,4.55
2024-05-09T05:02:24.243Z,5.07
2024-05-09T05:05:26.134Z,5.32
2024-05-09T05:08:28.141Z,5.20
2024-05-09T05:11:30.086Z,4.88
2024-05-09T05:14:32.066Z,4.60
2024-05-09T05:17:34.410Z,4.68
2024-05-09T05:20:36.495Z,5.30
2024-05-09T05:23:41.043Z,4.72
2024-05-09T05:26:43.001Z,4.72
2024-05-09T05:29:44.947Z,4.85
2024-05-09T05:32:47.065Z,4.65
2024-05-09T05:35:49.215Z,4.75
2024-05-09T05:38:51.198Z,5.10
2024-05-09T05:41:53.088Z,5.00
2024-05-09T05:44:55.127Z,5.32
2024-05-09T05:47:57.096Z,5.38
2024-05-09T05:51:01.886Z,5.15
2024-05-09T05:54:05.481Z,5.28
2024-05-09T05:57:07.323Z,5.32
2024-05-09T06:00:15.159Z,4.90
2024-05-09T06:03:20.036Z,4.90
2024-05-09T06:06:21.991Z,5.18
2024-05-09T06:09:23.786Z,4.68
2024-05-09T06:12:26.043Z,4.85
2024-05-09T06:15:28.001Z,4.75
2024-05-09T06:18:30.244Z,5.15
2024-05-09T06:21:32.289Z,4.50
2024-05-09T06:24:34.100Z,5.05
2024-05-09T06:27:35.906Z,4.38
2024-05-09T06:30:40.428Z,4.68
2024-05-09T06:33:43.933Z,5.00
2024-05-09T06:36:46.905Z,4.38
2024-05-09T06:39:51.428Z,5.35
2024-05-09T06:42:54.693Z,5.15
2024-05-09T06:45:56.488Z,5.70
2024-05-09T06:49:00.511Z,5.15
2024-05-09T06:52:02.383Z,4.65
2024-05-09T06:55:04.362Z,5.10
2024-05-09T06:58:07.293Z,5.22
2024-05-09T07:01:09.151Z,5.05
2024-05-09T07:04:11.180Z,5.30
2024-05-09T07:07:13.127Z,5.22
2024-05-09T07:10:22.006Z,5.18
2024-05-09T07:13:30.408Z,4.95
2024-05-09T07:16:32.257Z,5.40
2024-05-09T07:19:34.173Z,5.50
2024-05-09T07:22:36.030Z,5.53
2024-05-09T07:25:38.619Z,5.78
2024-05-09T07:28:40.844Z,5.70
2024-05-09T07:31:42.738Z,5.80
2024-05-09T07:34:44.576Z,5.40
2024-05-09T07:37:46.446Z,6.10
2024-05-09T07:40:48.692Z,5.38
2024-05-09T07:43:50.660Z,5.28
2024-05-09T07:48:13.616Z,5.50
2024-05-09T07:53:38.419Z,5.22
2024-05-09T07:56:41.248Z,5.57
2024-05-09T07:59:43.451Z,5.80
2024-05-09T08:02:45.392Z,5.55
2024-05-09T08:05:47.275Z,5.57
2024-05-09T08:08:49.888Z,5.97
2024-05-09T08:11:55.210Z,5.65
2024-05-09T08:14:57.122Z,5.88
2024-05-09T08:18:00.261Z,4.90
2024-05-09T08:21:02.344Z,5.40
2024-05-09T08:24:04.255Z,5.45
2024-05-09T08:27:06.107Z,5.68
2024-05-09T08:30:15.283Z,4.90
2024-05-09T08:33:20.573Z,5.68
2024-05-09T08:36:22.492Z,5.47
2024-05-09T08:39:24.387Z,4.75
2024-05-09T08:42:29.320Z,4.85
2024-05-09T08:45:35.618Z,5.00
2024-05-09T08:48:39.988Z,4.70
2024-05-09T08:51:42.941Z,4.85
2024-05-09T08:54:45.299Z,5.25
2024-05-09T08:57:48.505Z,4.85
2024-05-09T09:00:50.483Z,4.88
2024-05-09T09:03:53.675Z,4.90
2024-05-09T09:06:58.769Z,5.07
2024-05-09T09:13:09.545Z,5.18
2024-05-09T09:16:12.979Z,4.63
2024-05-09T09:19:15.134Z,4.85
2024-05-09T09:22:19.746Z,4.50
2024-05-09T09:25:22.800Z,5.43
2024-05-09T09:28:24.670Z,5.00
2024-05-09T09:31:26.636Z,4.32
2024-05-09T09:34:28.973Z,4.82
2024-05-09T09:37:30.986Z,4.80
2024-05-09T09:40:41.079Z,5.03
2024-05-09T09:43:48.860Z,4.60
2024-05-09T09:46:51.925Z,4.72
2024-05-09T09:49:55.553Z,5.28
2024-05-09T09:52:59.351Z,4.88
2024-05-09T09:56:02.235Z,4.57
2024-05-09T09:59:04.554Z,4.85
2024-05-09T10:02:06.696Z,4.50
2024-05-09T10:05:09.601Z,5.00
2024-05-09T10:08:12.469Z,4.47
2024-05-09T10:11:20.158Z,5.47
2024-05-09T10:14:22.374Z,4.20
2024-05-09T10:17:24.364Z,4.47
2024-05-09T10:20:30.858Z,4.28
2024-05-09T10:23:36.258Z,4.53
2024-05-09T10:26:38.998Z,5.10
2024-05-09T10:29:51.606Z,4.45
2024-05-09T10:32:56.763Z,4.28
2024-05-09T10:36:03.417Z,4.30
2024-05-09T10:39:05.490Z,4.07
2024-05-09T10:42:10.134Z,4.28
2024-05-09T10:45:11.947Z,4.13
2024-05-09T10:48:13.979Z,4.43
2024-05-09T10:51:18.295Z,4.78
2024-05-09T10:54:20.114Z,3.80
2024-05-09T10:57:22.618Z,4.65
2024-05-09T11:00:35.678Z,3.95
2024-05-09T11:03:39.337Z,3.92
2024-05-09T11:06:42.236Z,4.07
2024-05-09T11:09:44.712Z,3.83
2024-05-09T11:12:46.624Z,3.63
2024-05-09T11:15:48.527Z,4.28
2024-05-09T11:18:59.686Z,4.00
2024-05-09T11:22:04.700Z,3.65
2024-05-09T11:25:06.903Z,4.20
2024-05-09T11:28:08.802Z,4.50
2024-05-09T11:31:11.090Z,4.40
2024-05-09T11:34:13.181Z,3.88
2024-05-09T11:37:15.266Z,3.67
2024-05-09T11:40:24.847Z,3.92
2024-05-09T11:43:30.562Z,3.38
2024-05-09T11:46:32.556Z,4.13
2024-05-09T11:49:34.406Z,4.03
2024-05-09T11:52:36.280Z,4.72
2024-05-09T11:55:38.237Z,4.10
2024-05-09T11:58:41.576Z,4.00
2024-05-09T12:01:43.716Z,4.05
2024-05-09T12:04:47.013Z,3.65
2024-05-09T12:07:51.222Z,3.53
2024-05-09T12:10:53.513Z,3.80
2024-05-09T12:13:55.478Z,4.22
2024-05-09T12:16:59.364Z,3.47
2024-05-09T12:20:01.214Z,3.70
2024-05-09T12:23:03.055Z,3.47
2024-05-09T12:26:05.147Z,3.70
2024-05-09T12:29:07.951Z,4.25
2024-05-09T12:32:10.039Z,4.00
2024-05-09T12:35:11.917Z,4.50
2024-05-09T12:38:14.413Z,4.03
2024-05-09T12:41:16.265Z,3.95
2024-05-09T12:44:18.119Z,4.20
2024-05-09T12:47:22.142Z,3.63
2024-05-09T12:50:31.062Z,4.15
2024-05-09T12:53:36.390Z,3.65
2024-05-09T12:56:38.246Z,3.75
2024-05-09T12:59:42.189Z,4.30
2024-05-09T13:02:44.077Z,3.90
2024-05-09T13:05:46.391Z,3.08
2024-05-09T13:08:48.423Z,3.88
2024-05-09T13:11:50.385Z,3.75
2024-05-09T13:14:52.265Z,4.10
2024-05-09T13:17:56.408Z,3.67
2024-05-09T13:21:00.155Z,3.78
2024-05-09T13:24:02.015Z,3.67
2024-05-09T13:27:04.102Z,3.47
2024-05-09T13:30:12.054Z,3.95
2024-05-09T13:33:19.847Z,3.85
2024-05-09T13:36:22.106Z,3.90
2024-05-09T13:39:24.077Z,4.57
2024-05-09T13:42:27.436Z,3.85
2024-05-09T13:45:29.401Z,3.50
2024-05-09T13:48:31.510Z,4.00
2024-05-09T13:51:33.433Z,3.85
2024-05-09T13:54:35.323Z,3.45
2024-05-09T13:57:37.269Z,4.10
2024-05-09T14:00:46.256Z,3.38
2024-05-09T14:03:50.546Z,3.83
2024-05-09T14:06:52.834Z,3.83
2024-05-09T14:09:54.820Z,4.03
2024-05-09T14:12:56.784Z,3.25
2024-05-09T14:15:59.013Z,3.72
2024-05-09T14:19:01.219Z,3.20
2024-05-09T14:22:06.229Z,3.72
2024-05-09T14:25:09.842Z,3.38
2024-05-09T14:28:13.030Z,3.53
2024-05-09T14:31:15.469Z,3.63
2024-05-09T14:34:17.659Z,3.75
2024-05-09T14:37:19.777Z,4.03
2024-05-09T14:40:31.173Z,3.40
2024-05-09T14:43:41.571Z,3.63
2024-05-09T14:46:43.523Z,4.00
2024-05-09T14:49:45.495Z,6.78
2024-05-09T14:52:47.501Z,5.45
2024-05-09T14:55:49.952Z,4.40
2024-05-09T14:58:51.891Z,4.20
2024-05-09T15:01:53.765Z,4.30
2024-05-09T15:04:55.702Z,3.65
2024-05-09T15:07:58.188Z,3.85
2024-05-09T15:11:00.103Z,3.90
2024-05-09T15:14:01.962Z,3.58
2024-05-09T15:17:04.012Z,3.65
2024-05-09T15:20:09.450Z,3.75
2024-05-09T15:23:11.766Z,3.83
2024-05-09T15:26:13.893Z,4.30
2024-05-09T15:29:15.723Z,3.67
2024-05-09T15:32:17.516Z,3.72
2024-05-09T15:35:19.387Z,3.58
2024-05-09T15:38:21.341Z,4.20
2024-05-09T15:41:23.130Z,3.92
2024-05-09T15:44:25.831Z,4.35
2024-05-09T15:47:28.149Z,3.45
2024-05-09T15:50:37.089Z,3.83
2024-05-09T15:53:42.197Z,3.08
2024-05-09T15:56:48.822Z,4.97
2024-05-09T15:59:51.036Z,4.30
2024-05-09T16:02:52.937Z,4.65
2024-05-09T16:05:57.649Z,4.68
2024-05-09T16:08:59.867Z,3.88
2024-05-09T16:12:01.854Z,3.70
2024-05-09T16:15:04.163Z,3.70
2024-05-09T16:18:06.832Z,3.70
2024-05-09T16:21:08.676Z,3.88
2024-05-09T16:24:10.504Z,3.17
2024-05-09T16:27:12.903Z,2.95
2024-05-09T16:30:21.239Z,3.80
2024-05-09T16:33:30.146Z,3.83
2024-05-09T16:36:32.337Z,3.70
2024-05-09T16:39:34.239Z,3.10
2024-05-09T16:42:36.102Z,3.38
2024-05-09T16:45:40.515Z,3.20
2024-05-09T16:48:45.771Z,3.25
2024-05-09T16:51:47.720Z,3.03
2024-05-09T16:54:49.638Z,3.25
2024-05-09T16:57:52.150Z,3.08
2024-05-09T17:00:54.086Z,4.93
2024-05-09T17:03:56.165Z,3.90
2024-05-09T17:06:58.213Z,4.10
2024-05-09T17:10:00.288Z,3.20
2024-05-09T17:13:03.616Z,3.08
2024-05-09T17:16:08.237Z,2.63
2024-05-09T17:19:10.256Z,3.80
2024-05-09T17:22:12.642Z,3.13
2024-05-09T17:25:14.631Z,2.92
2024-05-09T17:28:16.945Z,3.80
2024-05-09T17:31:18.823Z,2.88
2024-05-09T17:34:20.856Z,3.15
2024-05-09T17:37:22.825Z,3.90
2024-05-09T17:40:31.148Z,3.35
2024-05-09T17:43:36.684Z,2.60
2024-05-09T17:46:38.768Z,3.10
2024-05-09T17:49:40.940Z,3.25
2024-05-09T17:52:42.747Z,2.53
2024-05-09T17:55:44.844Z,3.08
2024-05-09T17:58:48.944Z,3.08
2024-05-09T18:01:51.025Z,2.92
2024-05-09T18:04:53.009Z,3.55
2024-05-09T18:07:55.319Z,3.78
2024-05-09T18:10:57.180Z,3.13
2024-05-09T18:13:59.077Z,2.53
2024-05-09T18:17:00.986Z,2.47
2024-05-09T18:20:05.325Z,3.33
2024-05-09T18:23:07.508Z,3.15
2024-05-09T18:26:09.602Z,3.08
2024-05-09T18:29:11.538Z,2.35
2024-05-09T18:32:13.437Z,2.72
2024-05-09T18:35:15.460Z,2.83
2024-05-09T18:38:18.617Z,2.83
2024-05-09T18:41:21.714Z,3.28
2024-05-09T18:44:23.529Z,2.95
2024-05-09T18:47:25.535Z,2.88
2024-05-09T18:50:34.924Z,2.95
2024-05-09T18:53:41.765Z,3.38
2024-05-09T18:56:45.153Z,3.15
2024-05-09T18:59:47.244Z,3.53
2024-05-09T19:02:49.436Z,3.25
2024-05-09T19:05:51.634Z,3.72
2024-05-09T19:08:53.580Z,3.08
2024-05-09T19:11:55.444Z,3.67
2024-05-09T19:14:57.307Z,2.97
2024-05-09T19:17:59.550Z,3.17
2024-05-09T19:21:01.457Z,3.35
2024-05-09T19:24:03.510Z,2.90
2024-05-09T19:27:05.360Z,3.10
2024-05-09T19:30:17.195Z,2.63
2024-05-09T19:33:23.632Z,3.83
2024-05-09T19:36:25.749Z,4.20
2024-05-09T19:39:27.618Z,4.25
2024-05-09T19:42:31.514Z,2.85
2024-05-09T19:45:35.169Z,3.22
2024-05-09T19:48:38.383Z,3.08
2024-05-09T19:51:41.668Z,3.63
2024-05-09T19:54:45.255Z,3.35
2024-05-09T19:57:47.251Z,3.10
2024-05-09T20:00:49.246Z,3.67
2024-05-09T20:03:51.441Z,4.10
2024-05-09T20:06:53.542Z,3.45
2024-05-09T20:09:55.477Z,3.70
2024-05-09T20:12:57.364Z,3.75
2024-05-09T20:16:01.404Z,3.67
2024-05-09T20:19:03.748Z,3.60
2024-05-09T20:22:05.777Z,3.40
2024-05-09T20:25:07.894Z,3.38
2024-05-09T20:28:10.761Z,3.20
2024-05-09T20:31:21.038Z,3.65
2024-05-09T20:34:23.347Z,3.22
2024-05-09T20:37:26.067Z,3.38
2024-05-09T20:40:32.797Z,3.05
2024-05-09T20:43:38.214Z,3.53
2024-05-09T20:46:40.087Z,3.60
2024-05-09T20:49:42.011Z,3.17
2024-05-09T20:52:43.944Z,3.60
2024-05-09T20:55:45.959Z,4.20
2024-05-09T20:58:48.231Z,3.03
2024-05-09T21:01:50.222Z,3.70
2024-05-09T21:04:52.350Z,4.05
2024-05-09T21:07:54.326Z,3.13
2024-05-09T21:10:56.190Z,4.20
2024-05-09T21:13:57.963Z,3.42
2024-05-09T21:17:00.041Z,3.42
2024-05-09T21:20:02.351Z,3.88
2024-05-09T21:23:04.878Z,3.75
2024-05-09T21:26:07.128Z,3.25
2024-05-09T21:29:08.964Z,3.80
2024-05-09T21:32:10.811Z,4.15
2024-05-09T21:35:12.792Z,3.83
2024-05-09T21:38:15.213Z,3.47
2024-05-09T21:41:17.071Z,3.72
2024-05-09T21:44:18.977Z,3.67
2024-05-09T21:47:20.910Z,3.28
2024-05-09T21:50:28.526Z,3.95
2024-05-09T21:53:40.164Z,4.30
2024-05-09T21:56:42.029Z,3.85
2024-05-09T21:59:44.148Z,3.70
2024-05-09T22:02:45.967Z,4.53
2024-05-09T22:05:47.774Z,4.07
2024-05-09T22:08:49.602Z,4.32
2024-05-09T22:11:53.016Z,4.10
2024-05-09T22:14:55.707Z,3.75
2024-05-09T22:17:57.832Z,4.00
2024-05-09T22:20:59.809Z,4.63
2024-05-09T22:24:01.743Z,3.97
2024-05-09T22:27:03.845Z,4.00
2024-05-09T22:30:09.188Z,3.53
2024-05-09T22:33:15.035Z,4.53
2024-05-09T22:36:17.067Z,4.15
2024-05-09T22:39:18.938Z,4.15
2024-05-09T22:42:20.852Z,4.20
2024-05-09T22:45:22.739Z,4.50
2024-05-09T22:48:26.003Z,4.07
2024-05-09T22:51:27.993Z,4.30
2024-05-09T22:54:29.926Z,3.95
2024-05-09T22:57:31.802Z,4.07
2024-05-09T23:00:33.881Z,3.80
2024-05-09T23:03:38.967Z,3.70
2024-05-09T23:06:41.749Z,3.90
2024-05-09T23:09:46.864Z,4.00
2024-05-09T23:12:49.070Z,4.10
2024-05-09T23:15:50.939Z,4.75
2024-05-09T23:18:52.973Z,3.70
2024-05-09T23:21:54.888Z,4.00
2024-05-09T23:24:56.722Z,3.92
2024-05-09T23:27:58.847Z,3.70
2024-05-09T23:31:00.866Z,3.83
2024-05-09T23:34:02.955Z,3.75
2024-05-09T23:37:05.071Z,3.53
2024-05-09T23:40:09.623Z,3.92
2024-05-09T23:43:12.771Z,3.50
2024-05-09T23:46:15.076Z,3.60
2024-05-09T23:49:16.956Z,3.97
2024-05-09T23:52:18.902Z,4.28
2024-05-09T23:55:21.050Z,3.80
2024-05-09T23:58:23.081Z,4.55
